sensor_id;sensor_type;location;lat;lon;timestamp;P1;durP1;ratioP1;P2;durP2;ratioP2
12762;SDS011;6445;52.490;13.378;2023-11-19T00:00:46;10.43;;;7.30;;
12762;SDS011;6445;52.490;13.378;2023-11-19T00:03:12;10.52;;;7.53;;
12762;SDS011;6445;52.490;13.378;2023-11-19T00:05:38;11.90;;;7.82;;
12762;SDS011;6445;52.490;13.378;2023-11-19T00:08:03;12.25;;;9.25;;
12762;SDS011;6445;52.490;13.378;2023-11-19T00:10:29;14.18;;;10.02;;
12762;SDS011;6445;52.490;13.378;2023-11-19T00:12:55;19.13;;;13.27;;
12762;SDS011;6445;52.490;13.378;2023-11-19T00:15:21;18.75;;;13.75;;
12762;SDS011;6445;52.490;13.378;2023-11-19T00:17:49;16.75;;;12.35;;
12762;SDS011;6445;52.490;13.378;2023-11-19T00:20:15;14.55;;;9.77;;
12762;SDS011;6445;52.490;13.378;2023-11-19T00:22:41;16.73;;;10.77;;
12762;SDS011;6445;52.490;13.378;2023-11-19T00:25:08;11.93;;;8.65;;
12762;SDS011;6445;52.490;13.378;2023-11-19T00:27:33;10.75;;;8.30;;
12762;SDS011;6445;52.490;13.378;2023-11-19T00:29:59;13.27;;;7.78;;
12762;SDS011;6445;52.490;13.378;2023-11-19T00:32:24;11.27;;;7.72;;
12762;SDS011;6445;52.490;13.378;2023-11-19T00:34:50;9.10;;;7.38;;
12762;SDS011;6445;52.490;13.378;2023-11-19T00:37:16;10.27;;;7.70;;
12762;SDS011;6445;52.490;13.378;2023-11-19T00:39:41;10.00;;;7.57;;
12762;SDS011;6445;52.490;13.378;2023-11-19T00:42:07;9.70;;;7.35;;
12762;SDS011;6445;52.490;13.378;2023-11-19T00:44:32;9.23;;;7.20;;
12762;SDS011;6445;52.490;13.378;2023-11-19T00:46:57;9.60;;;7.43;;
12762;SDS011;6445;52.490;13.378;2023-11-19T00:49:24;11.43;;;7.70;;
12762;SDS011;6445;52.490;13.378;2023-11-19T00:51:50;8.65;;;7.15;;
12762;SDS011;6445;52.490;13.378;2023-11-19T00:54:15;11.48;;;7.50;;
12762;SDS011;6445;52.490;13.378;2023-11-19T00:56:40;10.70;;;7.40;;
12762;SDS011;6445;52.490;13.378;2023-11-19T00:59:05;10.10;;;7.35;;
12762;SDS011;6445;52.490;13.378;2023-11-19T01:01:31;9.25;;;7.63;;
12762;SDS011;6445;52.490;13.378;2023-11-19T01:03:56;9.50;;;7.25;;
12762;SDS011;6445;52.490;13.378;2023-11-19T01:06:27;12.43;;;7.38;;
12762;SDS011;6445;52.490;13.378;2023-11-19T01:08:53;10.27;;;6.93;;
12762;SDS011;6445;52.490;13.378;2023-11-19T01:11:20;9.00;;;6.80;;
12762;SDS011;6445;52.490;13.378;2023-11-19T01:13:46;15.63;;;12.10;;
12762;SDS011;6445;52.490;13.378;2023-11-19T01:16:11;13.15;;;8.50;;
12762;SDS011;6445;52.490;13.378;2023-11-19T01:18:37;8.52;;;6.85;;
12762;SDS011;6445;52.490;13.378;2023-11-19T01:21:03;10.70;;;6.80;;
12762;SDS011;6445;52.490;13.378;2023-11-19T01:23:29;8.20;;;6.55;;
12762;SDS011;6445;52.490;13.378;2023-11-19T01:25:54;9.38;;;6.80;;
12762;SDS011;6445;52.490;13.378;2023-11-19T01:28:19;7.53;;;6.35;;
12762;SDS011;6445;52.490;13.378;2023-11-19T01:30:44;8.38;;;6.50;;
12762;SDS011;6445;52.490;13.378;2023-11-19T01:33:09;9.25;;;6.68;;
12762;SDS011;6445;52.490;13.378;2023-11-19T01:35:35;9.00;;;6.93;;
12762;SDS011;6445;52.490;13.378;2023-11-19T01:38:00;8.13;;;6.38;;
12762;SDS011;6445;52.490;13.378;2023-11-19T01:40:25;9.30;;;6.13;;
12762;SDS011;6445;52.490;13.378;2023-11-19T01:42:50;10.10;;;6.60;;
12762;SDS011;6445;52.490;13.378;2023-11-19T01:45:27;6.97;;;5.85;;
12762;SDS011;6445;52.490;13.378;2023-11-19T01:47:53;7.97;;;6.38;;
12762;SDS011;6445;52.490;13.378;2023-11-19T01:50:19;8.60;;;6.85;;
12762;SDS011;6445;52.490;13.378;2023-11-19T01:52:45;7.35;;;6.18;;
12762;SDS011;6445;52.490;13.378;2023-11-19T01:55:11;7.70;;;6.00;;
12762;SDS011;6445;52.490;13.378;2023-11-19T01:57:37;9.40;;;6.20;;
12762;SDS011;6445;52.490;13.378;2023-11-19T02:00:06;8.68;;;6.88;;
12762;SDS011;6445;52.490;13.378;2023-11-19T02:02:31;8.25;;;6.25;;
12762;SDS011;6445;52.490;13.378;2023-11-19T02:04:57;8.98;;;6.75;;
12762;SDS011;6445;52.490;13.378;2023-11-19T02:07:22;9.68;;;6.75;;
12762;SDS011;6445;52.490;13.378;2023-11-19T02:09:49;8.77;;;6.20;;
12762;SDS011;6445;52.490;13.378;2023-11-19T02:12:14;8.95;;;6.72;;
12762;SDS011;6445;52.490;13.378;2023-11-19T02:14:40;7.90;;;6.40;;
12762;SDS011;6445;52.490;13.378;2023-11-19T02:17:05;8.80;;;6.90;;
12762;SDS011;6445;52.490;13.378;2023-11-19T02:19:30;9.40;;;6.80;;
12762;SDS011;6445;52.490;13.378;2023-11-19T02:21:55;9.85;;;6.97;;
12762;SDS011;6445;52.490;13.378;2023-11-19T02:24:24;9.75;;;6.85;;
12762;SDS011;6445;52.490;13.378;2023-11-19T02:26:58;8.95;;;6.80;;
12762;SDS011;6445;52.490;13.378;2023-11-19T02:29:27;9.10;;;6.65;;
12762;SDS011;6445;52.490;13.378;2023-11-19T02:31:53;9.27;;;6.53;;
12762;SDS011;6445;52.490;13.378;2023-11-19T02:34:20;9.18;;;6.47;;
12762;SDS011;6445;52.490;13.378;2023-11-19T02:36:46;9.02;;;6.25;;
12762;SDS011;6445;52.490;13.378;2023-11-19T02:39:12;7.93;;;6.22;;
12762;SDS011;6445;52.490;13.378;2023-11-19T02:41:38;7.35;;;6.15;;
12762;SDS011;6445;52.490;13.378;2023-11-19T02:44:04;8.02;;;6.10;;
12762;SDS011;6445;52.490;13.378;2023-11-19T02:46:31;8.55;;;6.05;;
12762;SDS011;6445;52.490;13.378;2023-11-19T02:48:57;8.38;;;6.30;;
12762;SDS011;6445;52.490;13.378;2023-11-19T02:51:22;8.80;;;5.90;;
12762;SDS011;6445;52.490;13.378;2023-11-19T02:53:47;8.45;;;5.68;;
12762;SDS011;6445;52.490;13.378;2023-11-19T02:56:13;7.18;;;5.70;;
12762;SDS011;6445;52.490;13.378;2023-11-19T02:58:50;8.32;;;5.40;;
12762;SDS011;6445;52.490;13.378;2023-11-19T03:01:21;9.18;;;5.63;;
12762;SDS011;6445;52.490;13.378;2023-11-19T03:03:55;7.60;;;5.60;;
12762;SDS011;6445;52.490;13.378;2023-11-19T03:06:22;7.03;;;5.38;;
12762;SDS011;6445;52.490;13.378;2023-11-19T03:08:47;7.97;;;5.80;;
12762;SDS011;6445;52.490;13.378;2023-11-19T03:11:13;6.10;;;4.88;;
12762;SDS011;6445;52.490;13.378;2023-11-19T03:13:38;7.70;;;5.53;;
12762;SDS011;6445;52.490;13.378;2023-11-19T03:16:04;6.25;;;5.25;;
12762;SDS011;6445;52.490;13.378;2023-11-19T03:18:29;5.80;;;4.65;;
12762;SDS011;6445;52.490;13.378;2023-11-19T03:20:55;6.07;;;5.00;;
12762;SDS011;6445;52.490;13.378;2023-11-19T03:23:20;6.72;;;5.20;;
12762;SDS011;6445;52.490;13.378;2023-11-19T03:25:45;7.07;;;5.22;;
12762;SDS011;6445;52.490;13.378;2023-11-19T03:28:10;6.18;;;5.35;;
12762;SDS011;6445;52.490;13.378;2023-11-19T03:30:36;7.28;;;5.28;;
12762;SDS011;6445;52.490;13.378;2023-11-19T03:33:01;8.23;;;5.22;;
12762;SDS011;6445;52.490;13.378;2023-11-19T03:35:27;8.05;;;5.82;;
12762;SDS011;6445;52.490;13.378;2023-11-19T03:37:53;7.15;;;5.30;;
12762;SDS011;6445;52.490;13.378;2023-11-19T03:40:18;7.70;;;5.60;;
12762;SDS011;6445;52.490;13.378;2023-11-19T03:42:46;8.65;;;5.90;;
12762;SDS011;6445;52.490;13.378;2023-11-19T03:45:11;8.40;;;5.80;;
12762;SDS011;6445;52.490;13.378;2023-11-19T03:47:37;13.68;;;6.00;;
12762;SDS011;6445;52.490;13.378;2023-11-19T03:50:02;8.65;;;6.47;;
12762;SDS011;6445;52.490;13.378;2023-11-19T03:52:29;10.68;;;6.22;;
12762;SDS011;6445;52.490;13.378;2023-11-19T03:54:54;10.43;;;7.10;;
12762;SDS011;6445;52.490;13.378;2023-11-19T03:57:20;10.00;;;7.07;;
12762;SDS011;6445;52.490;13.378;2023-11-19T03:59:46;12.80;;;7.18;;
12762;SDS011;6445;52.490;13.378;2023-11-19T04:02:11;8.85;;;6.93;;
12762;SDS011;6445;52.490;13.378;2023-11-19T04:04:36;9.00;;;7.00;;
12762;SDS011;6445;52.490;13.378;2023-11-19T04:07:03;13.23;;;7.63;;
12762;SDS011;6445;52.490;13.378;2023-11-19T04:09:29;11.23;;;8.00;;
12762;SDS011;6445;52.490;13.378;2023-11-19T04:11:55;13.45;;;8.20;;
12762;SDS011;6445;52.490;13.378;2023-11-19T04:14:20;10.57;;;7.43;;
12762;SDS011;6445;52.490;13.378;2023-11-19T04:16:45;10.63;;;8.00;;
12762;SDS011;6445;52.490;13.378;2023-11-19T04:19:11;11.50;;;8.07;;
12762;SDS011;6445;52.490;13.378;2023-11-19T04:21:36;10.70;;;8.13;;
12762;SDS011;6445;52.490;13.378;2023-11-19T04:24:02;10.75;;;7.68;;
12762;SDS011;6445;52.490;13.378;2023-11-19T04:26:27;10.57;;;8.13;;
12762;SDS011;6445;52.490;13.378;2023-11-19T04:28:53;10.30;;;7.85;;
12762;SDS011;6445;52.490;13.378;2023-11-19T04:31:18;12.95;;;8.50;;
12762;SDS011;6445;52.490;13.378;2023-11-19T04:33:43;11.93;;;8.68;;
12762;SDS011;6445;52.490;13.378;2023-11-19T04:36:09;10.77;;;7.90;;
12762;SDS011;6445;52.490;13.378;2023-11-19T04:38:35;14.32;;;8.93;;
12762;SDS011;6445;52.490;13.378;2023-11-19T04:41:00;14.27;;;8.30;;
12762;SDS011;6445;52.490;13.378;2023-11-19T04:43:26;12.98;;;8.52;;
12762;SDS011;6445;52.490;13.378;2023-11-19T04:45:51;12.60;;;8.60;;
12762;SDS011;6445;52.490;13.378;2023-11-19T04:48:16;13.45;;;9.10;;
12762;SDS011;6445;52.490;13.378;2023-11-19T04:50:41;14.50;;;8.70;;
12762;SDS011;6445;52.490;13.378;2023-11-19T04:53:07;16.73;;;9.00;;
12762;SDS011;6445;52.490;13.378;2023-11-19T04:55:32;14.65;;;9.23;;
12762;SDS011;6445;52.490;13.378;2023-11-19T04:57:57;13.70;;;8.85;;
12762;SDS011;6445;52.490;13.378;2023-11-19T05:00:22;13.00;;;9.75;;
12762;SDS011;6445;52.490;13.378;2023-11-19T05:02:48;12.75;;;8.93;;
12762;SDS011;6445;52.490;13.378;2023-11-19T05:05:15;14.57;;;9.68;;
12762;SDS011;6445;52.490;13.378;2023-11-19T05:07:40;17.88;;;9.27;;
12762;SDS011;6445;52.490;13.378;2023-11-19T05:10:06;15.52;;;9.73;;
12762;SDS011;6445;52.490;13.378;2023-11-19T05:12:32;13.63;;;9.35;;
12762;SDS011;6445;52.490;13.378;2023-11-19T05:14:57;13.25;;;9.73;;
12762;SDS011;6445;52.490;13.378;2023-11-19T05:17:23;14.88;;;8.93;;
12762;SDS011;6445;52.490;13.378;2023-11-19T05:19:48;17.92;;;10.52;;
12762;SDS011;6445;52.490;13.378;2023-11-19T05:22:13;14.77;;;9.30;;
12762;SDS011;6445;52.490;13.378;2023-11-19T05:24:38;15.52;;;9.80;;
12762;SDS011;6445;52.490;13.378;2023-11-19T05:27:04;15.00;;;10.25;;
12762;SDS011;6445;52.490;13.378;2023-11-19T05:29:30;14.13;;;9.88;;
12762;SDS011;6445;52.490;13.378;2023-11-19T05:31:55;14.70;;;10.10;;
12762;SDS011;6445;52.490;13.378;2023-11-19T05:34:20;12.88;;;9.40;;
12762;SDS011;6445;52.490;13.378;2023-11-19T05:36:46;14.73;;;10.50;;
12762;SDS011;6445;52.490;13.378;2023-11-19T05:39:11;13.98;;;10.10;;
12762;SDS011;6445;52.490;13.378;2023-11-19T05:41:36;18.20;;;10.38;;
12762;SDS011;6445;52.490;13.378;2023-11-19T05:44:02;13.02;;;9.85;;
12762;SDS011;6445;52.490;13.378;2023-11-19T05:46:27;13.55;;;9.80;;
12762;SDS011;6445;52.490;13.378;2023-11-19T05:48:52;15.13;;;10.07;;
12762;SDS011;6445;52.490;13.378;2023-11-19T05:51:18;14.27;;;10.30;;
12762;SDS011;6445;52.490;13.378;2023-11-19T05:53:43;13.75;;;9.65;;
12762;SDS011;6445;52.490;13.378;2023-11-19T05:56:10;15.30;;;9.77;;
12762;SDS011;6445;52.490;13.378;2023-11-19T05:58:36;16.67;;;10.38;;
12762;SDS011;6445;52.490;13.378;2023-11-19T06:01:02;17.10;;;10.20;;
12762;SDS011;6445;52.490;13.378;2023-11-19T06:03:28;17.73;;;10.45;;
12762;SDS011;6445;52.490;13.378;2023-11-19T06:05:53;15.05;;;10.27;;
12762;SDS011;6445;52.490;13.378;2023-11-19T06:08:19;14.02;;;10.30;;
12762;SDS011;6445;52.490;13.378;2023-11-19T06:10:45;14.02;;;10.32;;
12762;SDS011;6445;52.490;13.378;2023-11-19T06:13:11;17.90;;;10.73;;
12762;SDS011;6445;52.490;13.378;2023-11-19T06:15:40;14.65;;;10.48;;
12762;SDS011;6445;52.490;13.378;2023-11-19T06:18:06;16.25;;;11.15;;
12762;SDS011;6445;52.490;13.378;2023-11-19T06:20:32;16.00;;;10.07;;
12762;SDS011;6445;52.490;13.378;2023-11-19T06:22:58;15.65;;;10.07;;
12762;SDS011;6445;52.490;13.378;2023-11-19T06:25:23;14.27;;;10.55;;
12762;SDS011;6445;52.490;13.378;2023-11-19T06:27:49;12.75;;;9.88;;
12762;SDS011;6445;52.490;13.378;2023-11-19T06:30:14;14.00;;;10.10;;
12762;SDS011;6445;52.490;13.378;2023-11-19T06:32:39;15.30;;;10.80;;
12762;SDS011;6445;52.490;13.378;2023-11-19T06:35:05;14.40;;;10.07;;
12762;SDS011;6445;52.490;13.378;2023-11-19T06:37:30;15.82;;;11.02;;
12762;SDS011;6445;52.490;13.378;2023-11-19T06:39:55;15.55;;;10.57;;
12762;SDS011;6445;52.490;13.378;2023-11-19T06:42:21;14.68;;;10.18;;
12762;SDS011;6445;52.490;13.378;2023-11-19T06:44:46;14.65;;;10.82;;
12762;SDS011;6445;52.490;13.378;2023-11-19T06:47:11;15.07;;;10.15;;
12762;SDS011;6445;52.490;13.378;2023-11-19T06:49:36;16.90;;;10.82;;
12762;SDS011;6445;52.490;13.378;2023-11-19T06:52:02;14.00;;;10.30;;
12762;SDS011;6445;52.490;13.378;2023-11-19T06:54:27;12.85;;;9.77;;
12762;SDS011;6445;52.490;13.378;2023-11-19T06:56:53;13.95;;;10.02;;
12762;SDS011;6445;52.490;13.378;2023-11-19T06:59:18;12.15;;;9.57;;
12762;SDS011;6445;52.490;13.378;2023-11-19T07:01:44;13.73;;;9.93;;
12762;SDS011;6445;52.490;13.378;2023-11-19T07:04:12;13.25;;;9.75;;
12762;SDS011;6445;52.490;13.378;2023-11-19T07:06:37;13.88;;;8.85;;
12762;SDS011;6445;52.490;13.378;2023-11-19T07:09:03;12.85;;;8.95;;
12762;SDS011;6445;52.490;13.378;2023-11-19T07:11:37;12.02;;;8.80;;
12762;SDS011;6445;52.490;13.378;2023-11-19T07:14:03;12.63;;;8.73;;
12762;SDS011;6445;52.490;13.378;2023-11-19T07:16:29;12.35;;;9.52;;
12762;SDS011;6445;52.490;13.378;2023-11-19T07:18:54;12.63;;;8.55;;
12762;SDS011;6445;52.490;13.378;2023-11-19T07:21:20;16.60;;;9.07;;
12762;SDS011;6445;52.490;13.378;2023-11-19T07:23:45;12.25;;;8.90;;
12762;SDS011;6445;52.490;13.378;2023-11-19T07:26:11;15.15;;;9.63;;
12762;SDS011;6445;52.490;13.378;2023-11-19T07:28:37;11.38;;;8.52;;
12762;SDS011;6445;52.490;13.378;2023-11-19T07:31:03;11.88;;;8.55;;
12762;SDS011;6445;52.490;13.378;2023-11-19T07:33:28;11.70;;;8.32;;
12762;SDS011;6445;52.490;13.378;2023-11-19T07:35:54;13.48;;;8.90;;
12762;SDS011;6445;52.490;13.378;2023-11-19T07:38:20;11.55;;;8.18;;
12762;SDS011;6445;52.490;13.378;2023-11-19T07:40:45;10.55;;;8.02;;
12762;SDS011;6445;52.490;13.378;2023-11-19T07:43:10;26.65;;;17.17;;
12762;SDS011;6445;52.490;13.378;2023-11-19T07:45:35;11.30;;;8.23;;
12762;SDS011;6445;52.490;13.378;2023-11-19T07:48:01;11.90;;;8.32;;
12762;SDS011;6445;52.490;13.378;2023-11-19T07:50:26;11.45;;;8.05;;
12762;SDS011;6445;52.490;13.378;2023-11-19T07:52:52;13.02;;;8.68;;
12762;SDS011;6445;52.490;13.378;2023-11-19T07:55:17;13.43;;;9.13;;
12762;SDS011;6445;52.490;13.378;2023-11-19T07:57:42;12.70;;;9.35;;
12762;SDS011;6445;52.490;13.378;2023-11-19T08:00:07;12.80;;;9.00;;
12762;SDS011;6445;52.490;13.378;2023-11-19T08:02:37;11.65;;;8.57;;
12762;SDS011;6445;52.490;13.378;2023-11-19T08:05:02;11.82;;;9.40;;
12762;SDS011;6445;52.490;13.378;2023-11-19T08:07:28;11.93;;;9.10;;
12762;SDS011;6445;52.490;13.378;2023-11-19T08:09:53;12.73;;;8.77;;
12762;SDS011;6445;52.490;13.378;2023-11-19T08:12:18;11.13;;;8.45;;
12762;SDS011;6445;52.490;13.378;2023-11-19T08:14:43;13.07;;;8.98;;
12762;SDS011;6445;52.490;13.378;2023-11-19T08:17:09;11.48;;;8.60;;
12762;SDS011;6445;52.490;13.378;2023-11-19T08:19:34;12.00;;;9.05;;
12762;SDS011;6445;52.490;13.378;2023-11-19T08:21:59;13.18;;;9.30;;
12762;SDS011;6445;52.490;13.378;2023-11-19T08:24:25;12.45;;;8.75;;
12762;SDS011;6445;52.490;13.378;2023-11-19T08:26:50;11.38;;;8.07;;
12762;SDS011;6445;52.490;13.378;2023-11-19T08:29:15;11.25;;;8.73;;
12762;SDS011;6445;52.490;13.378;2023-11-19T08:31:41;11.88;;;9.13;;
12762;SDS011;6445;52.490;13.378;2023-11-19T08:34:07;12.52;;;8.85;;
12762;SDS011;6445;52.490;13.378;2023-11-19T08:36:35;11.75;;;9.30;;
12762;SDS011;6445;52.490;13.378;2023-11-19T08:39:00;12.48;;;9.65;;
12762;SDS011;6445;52.490;13.378;2023-11-19T08:41:26;12.98;;;9.63;;
12762;SDS011;6445;52.490;13.378;2023-11-19T08:43:51;14.10;;;9.55;;
12762;SDS011;6445;52.490;13.378;2023-11-19T08:46:16;13.13;;;8.85;;
12762;SDS011;6445;52.490;13.378;2023-11-19T08:48:42;13.00;;;9.82;;
12762;SDS011;6445;52.490;13.378;2023-11-19T08:51:07;11.45;;;9.07;;
12762;SDS011;6445;52.490;13.378;2023-11-19T08:53:32;13.05;;;9.00;;
12762;SDS011;6445;52.490;13.378;2023-11-19T08:55:58;14.18;;;9.80;;
12762;SDS011;6445;52.490;13.378;2023-11-19T08:58:23;11.57;;;8.80;;
12762;SDS011;6445;52.490;13.378;2023-11-19T09:00:48;12.90;;;9.18;;
12762;SDS011;6445;52.490;13.378;2023-11-19T09:03:13;11.80;;;8.32;;
12762;SDS011;6445;52.490;13.378;2023-11-19T09:05:39;9.35;;;7.95;;
12762;SDS011;6445;52.490;13.378;2023-11-19T09:08:04;11.57;;;8.85;;
12762;SDS011;6445;52.490;13.378;2023-11-19T09:10:29;12.60;;;7.93;;
12762;SDS011;6445;52.490;13.378;2023-11-19T09:12:55;11.68;;;8.45;;
12762;SDS011;6445;52.490;13.378;2023-11-19T09:15:20;11.63;;;7.82;;
12762;SDS011;6445;52.490;13.378;2023-11-19T09:17:45;10.73;;;8.23;;
12762;SDS011;6445;52.490;13.378;2023-11-19T09:20:11;11.68;;;8.63;;
12762;SDS011;6445;52.490;13.378;2023-11-19T09:22:39;11.90;;;8.40;;
12762;SDS011;6445;52.490;13.378;2023-11-19T09:25:05;10.68;;;8.02;;
12762;SDS011;6445;52.490;13.378;2023-11-19T09:27:30;11.43;;;8.45;;
12762;SDS011;6445;52.490;13.378;2023-11-19T09:29:55;10.48;;;8.73;;
12762;SDS011;6445;52.490;13.378;2023-11-19T09:32:23;10.45;;;8.18;;
12762;SDS011;6445;52.490;13.378;2023-11-19T09:34:48;10.93;;;8.27;;
12762;SDS011;6445;52.490;13.378;2023-11-19T09:37:13;10.43;;;7.50;;
12762;SDS011;6445;52.490;13.378;2023-11-19T09:39:39;9.45;;;6.90;;
12762;SDS011;6445;52.490;13.378;2023-11-19T09:42:08;8.85;;;7.00;;
12762;SDS011;6445;52.490;13.378;2023-11-19T09:44:34;11.30;;;8.20;;
12762;SDS011;6445;52.490;13.378;2023-11-19T09:47:00;11.60;;;8.40;;
12762;SDS011;6445;52.490;13.378;2023-11-19T09:49:26;10.88;;;7.53;;
12762;SDS011;6445;52.490;13.378;2023-11-19T09:51:52;11.10;;;8.48;;
12762;SDS011;6445;52.490;13.378;2023-11-19T09:54:17;11.55;;;7.90;;
12762;SDS011;6445;52.490;13.378;2023-11-19T09:56:43;11.02;;;7.00;;
12762;SDS011;6445;52.490;13.378;2023-11-19T09:59:08;8.85;;;5.55;;
12762;SDS011;6445;52.490;13.378;2023-11-19T10:01:35;8.80;;;5.78;;
12762;SDS011;6445;52.490;13.378;2023-11-19T10:04:02;8.05;;;5.15;;
12762;SDS011;6445;52.490;13.378;2023-11-19T10:06:28;9.75;;;5.03;;
12762;SDS011;6445;52.490;13.378;2023-11-19T10:08:53;7.38;;;5.05;;
12762;SDS011;6445;52.490;13.378;2023-11-19T10:11:20;6.22;;;4.43;;
12762;SDS011;6445;52.490;13.378;2023-11-19T10:13:45;11.63;;;4.82;;
12762;SDS011;6445;52.490;13.378;2023-11-19T10:16:13;5.72;;;4.05;;
12762;SDS011;6445;52.490;13.378;2023-11-19T10:18:44;6.68;;;4.22;;
12762;SDS011;6445;52.490;13.378;2023-11-19T10:21:14;7.38;;;4.15;;
12762;SDS011;6445;52.490;13.378;2023-11-19T10:23:51;10.68;;;5.80;;
12762;SDS011;6445;52.490;13.378;2023-11-19T10:26:19;6.70;;;4.30;;
12762;SDS011;6445;52.490;13.378;2023-11-19T10:28:46;12.15;;;6.05;;
12762;SDS011;6445;52.490;13.378;2023-11-19T10:31:14;9.57;;;5.50;;
12762;SDS011;6445;52.490;13.378;2023-11-19T10:33:41;8.68;;;4.65;;
12762;SDS011;6445;52.490;13.378;2023-11-19T10:36:07;8.57;;;3.78;;
12762;SDS011;6445;52.490;13.378;2023-11-19T10:38:32;6.55;;;3.30;;
12762;SDS011;6445;52.490;13.378;2023-11-19T10:40:58;8.63;;;4.00;;
12762;SDS011;6445;52.490;13.378;2023-11-19T10:43:24;7.15;;;3.22;;
12762;SDS011;6445;52.490;13.378;2023-11-19T10:45:50;7.18;;;3.80;;
12762;SDS011;6445;52.490;13.378;2023-11-19T10:48:17;9.27;;;3.58;;
12762;SDS011;6445;52.490;13.378;2023-11-19T10:50:43;7.57;;;3.50;;
12762;SDS011;6445;52.490;13.378;2023-11-19T10:53:11;6.80;;;3.40;;
12762;SDS011;6445;52.490;13.378;2023-11-19T10:55:40;8.15;;;3.47;;
12762;SDS011;6445;52.490;13.378;2023-11-19T10:58:09;8.77;;;3.42;;
12762;SDS011;6445;52.490;13.378;2023-11-19T11:03:17;7.22;;;3.08;;
12762;SDS011;6445;52.490;13.378;2023-11-19T11:05:45;10.63;;;3.47;;
12762;SDS011;6445;52.490;13.378;2023-11-19T11:08:12;8.15;;;3.47;;
12762;SDS011;6445;52.490;13.378;2023-11-19T11:10:39;10.60;;;3.55;;
12762;SDS011;6445;52.490;13.378;2023-11-19T11:13:08;7.90;;;3.20;;
12762;SDS011;6445;52.490;13.378;2023-11-19T11:15:35;6.53;;;3.25;;
12762;SDS011;6445;52.490;13.378;2023-11-19T11:18:02;12.23;;;4.10;;
12762;SDS011;6445;52.490;13.378;2023-11-19T11:20:31;12.35;;;3.78;;
12762;SDS011;6445;52.490;13.378;2023-11-19T11:23:07;14.82;;;4.38;;
12762;SDS011;6445;52.490;13.378;2023-11-19T11:26:53;13.65;;;3.95;;
12762;SDS011;6445;52.490;13.378;2023-11-19T11:29:05;11.85;;;3.60;;
12762;SDS011;6445;52.490;13.378;2023-11-19T11:32:01;8.77;;;3.55;;
12762;SDS011;6445;52.490;13.378;2023-11-19T11:37:48;12.40;;;3.50;;
12762;SDS011;6445;52.490;13.378;2023-11-19T11:40:18;10.15;;;3.90;;
12762;SDS011;6445;52.490;13.378;2023-11-19T11:42:43;12.10;;;3.38;;
12762;SDS011;6445;52.490;13.378;2023-11-19T11:45:10;9.15;;;3.50;;
12762;SDS011;6445;52.490;13.378;2023-11-19T11:50:07;10.82;;;3.53;;
12762;SDS011;6445;52.490;13.378;2023-11-19T11:52:41;11.45;;;3.90;;
12762;SDS011;6445;52.490;13.378;2023-11-19T11:57:51;15.25;;;3.78;;
12762;SDS011;6445;52.490;13.378;2023-11-19T12:02:57;11.45;;;3.63;;
12762;SDS011;6445;52.490;13.378;2023-11-19T12:05:25;9.32;;;3.22;;
12762;SDS011;6445;52.490;13.378;2023-11-19T12:07:54;11.27;;;3.58;;
12762;SDS011;6445;52.490;13.378;2023-11-19T12:10:20;12.70;;;3.60;;
12762;SDS011;6445;52.490;13.378;2023-11-19T12:12:47;14.70;;;3.72;;
12762;SDS011;6445;52.490;13.378;2023-11-19T12:15:12;10.23;;;3.80;;
12762;SDS011;6445;52.490;13.378;2023-11-19T12:17:41;13.65;;;3.65;;
12762;SDS011;6445;52.490;13.378;2023-11-19T12:20:09;15.70;;;4.28;;
12762;SDS011;6445;52.490;13.378;2023-11-19T12:22:39;13.15;;;4.07;;
12762;SDS011;6445;52.490;13.378;2023-11-19T12:25:06;14.70;;;3.80;;
12762;SDS011;6445;52.490;13.378;2023-11-19T12:29:59;15.82;;;4.05;;
12762;SDS011;6445;52.490;13.378;2023-11-19T12:32:24;20.17;;;4.15;;
12762;SDS011;6445;52.490;13.378;2023-11-19T12:34:50;16.35;;;4.53;;
12762;SDS011;6445;52.490;13.378;2023-11-19T12:37:15;16.48;;;4.75;;
12762;SDS011;6445;52.490;13.378;2023-11-19T12:39:40;12.23;;;4.10;;
12762;SDS011;6445;52.490;13.378;2023-11-19T12:42:05;14.50;;;4.38;;
12762;SDS011;6445;52.490;13.378;2023-11-19T12:44:31;17.80;;;7.80;;
12762;SDS011;6445;52.490;13.378;2023-11-19T12:47:03;13.80;;;4.60;;
12762;SDS011;6445;52.490;13.378;2023-11-19T12:49:31;17.55;;;4.50;;
12762;SDS011;6445;52.490;13.378;2023-11-19T12:51:57;14.32;;;4.22;;
12762;SDS011;6445;52.490;13.378;2023-11-19T12:54:33;12.65;;;4.53;;
12762;SDS011;6445;52.490;13.378;2023-11-19T12:56:58;19.15;;;5.13;;
12762;SDS011;6445;52.490;13.378;2023-11-19T12:59:24;17.25;;;4.70;;
12762;SDS011;6445;52.490;13.378;2023-11-19T13:01:58;17.50;;;4.55;;
12762;SDS011;6445;52.490;13.378;2023-11-19T13:04:27;21.70;;;5.47;;
12762;SDS011;6445;52.490;13.378;2023-11-19T13:06:53;19.00;;;5.20;;
12762;SDS011;6445;52.490;13.378;2023-11-19T13:09:28;13.43;;;4.70;;
12762;SDS011;6445;52.490;13.378;2023-11-19T13:11:54;17.13;;;4.47;;
12762;SDS011;6445;52.490;13.378;2023-11-19T13:14:20;13.40;;;4.78;;
12762;SDS011;6445;52.490;13.378;2023-11-19T13:16:46;17.90;;;5.13;;
12762;SDS011;6445;52.490;13.378;2023-11-19T13:19:12;16.75;;;4.88;;
12762;SDS011;6445;52.490;13.378;2023-11-19T13:21:37;18.02;;;4.93;;
12762;SDS011;6445;52.490;13.378;2023-11-19T13:24:04;14.05;;;4.78;;
12762;SDS011;6445;52.490;13.378;2023-11-19T13:26:30;17.70;;;4.50;;
12762;SDS011;6445;52.490;13.378;2023-11-19T13:28:56;14.95;;;4.60;;
12762;SDS011;6445;52.490;13.378;2023-11-19T13:31:21;15.32;;;4.18;;
12762;SDS011;6445;52.490;13.378;2023-11-19T13:33:47;16.20;;;4.40;;
12762;SDS011;6445;52.490;13.378;2023-11-19T13:36:12;16.77;;;4.43;;
12762;SDS011;6445;52.490;13.378;2023-11-19T13:38:38;20.73;;;4.60;;
12762;SDS011;6445;52.490;13.378;2023-11-19T13:41:04;15.60;;;5.07;;
12762;SDS011;6445;52.490;13.378;2023-11-19T13:43:30;20.05;;;5.03;;
12762;SDS011;6445;52.490;13.378;2023-11-19T13:45:55;18.17;;;4.88;;
12762;SDS011;6445;52.490;13.378;2023-11-19T13:48:21;17.52;;;4.95;;
12762;SDS011;6445;52.490;13.378;2023-11-19T13:50:46;15.73;;;4.75;;
12762;SDS011;6445;52.490;13.378;2023-11-19T13:53:12;15.93;;;4.53;;
12762;SDS011;6445;52.490;13.378;2023-11-19T13:55:37;14.10;;;4.50;;
12762;SDS011;6445;52.490;13.378;2023-11-19T13:58:03;19.02;;;4.50;;
12762;SDS011;6445;52.490;13.378;2023-11-19T14:00:29;16.20;;;5.18;;
12762;SDS011;6445;52.490;13.378;2023-11-19T14:02:55;20.92;;;4.95;;
12762;SDS011;6445;52.490;13.378;2023-11-19T14:05:20;26.10;;;5.60;;
12762;SDS011;6445;52.490;13.378;2023-11-19T14:07:46;15.35;;;5.18;;
12762;SDS011;6445;52.490;13.378;2023-11-19T14:10:13;25.55;;;5.82;;
12762;SDS011;6445;52.490;13.378;2023-11-19T14:12:40;18.08;;;5.20;;
12762;SDS011;6445;52.490;13.378;2023-11-19T14:15:06;25.63;;;5.75;;
12762;SDS011;6445;52.490;13.378;2023-11-19T14:17:33;19.73;;;5.53;;
12762;SDS011;6445;52.490;13.378;2023-11-19T14:19:59;23.20;;;5.00;;
12762;SDS011;6445;52.490;13.378;2023-11-19T14:22:24;21.48;;;5.38;;
12762;SDS011;6445;52.490;13.378;2023-11-19T14:24:50;22.30;;;5.47;;
12762;SDS011;6445;52.490;13.378;2023-11-19T14:27:15;14.75;;;5.43;;
12762;SDS011;6445;52.490;13.378;2023-11-19T14:29:42;21.65;;;6.10;;
12762;SDS011;6445;52.490;13.378;2023-11-19T14:32:07;20.80;;;5.32;;
12762;SDS011;6445;52.490;13.378;2023-11-19T14:34:32;18.25;;;5.50;;
12762;SDS011;6445;52.490;13.378;2023-11-19T14:36:58;23.73;;;5.40;;
12762;SDS011;6445;52.490;13.378;2023-11-19T14:39:24;16.90;;;4.95;;
12762;SDS011;6445;52.490;13.378;2023-11-19T14:41:49;19.63;;;6.88;;
12762;SDS011;6445;52.490;13.378;2023-11-19T14:44:15;23.33;;;5.45;;
12762;SDS011;6445;52.490;13.378;2023-11-19T14:46:41;20.77;;;5.40;;